createdAt,value
2022-10-04T00:02:01.137Z,9.93
2022-10-04T00:05:14.045Z,9.92
2022-10-04T00:09:04.094Z,9.92
2022-10-04T00:12:30.448Z,9.94
2022-10-04T00:15:40.460Z,9.86
2022-10-04T00:19:16.542Z,9.80
2022-10-04T00:23:25.860Z,9.94
2022-10-04T00:26:32.104Z,9.97
2022-10-04T00:30:04.465Z,10.11
2022-10-04T00:33:47.416Z,10.23
2022-10-04T00:37:20.677Z,10.30
2022-10-04T00:40:38.636Z,10.39
2022-10-04T00:43:49.346Z,10.41
2022-10-04T00:46:59.402Z,10.40
2022-10-04T00:50:22.616Z,10.33
2022-10-04T00:53:53.706Z,10.27
2022-10-04T00:57:23.945Z,10.18
2022-10-04T01:00:34.321Z,10.10
2022-10-04T01:04:01.932Z,9.99
2022-10-04T01:07:16.409Z,9.94
2022-10-04T01:10:43.393Z,9.76
2022-10-04T01:14:02.022Z,9.63
2022-10-04T01:17:26.732Z,9.51
2022-10-04T01:20:56.615Z,9.55
2022-10-04T01:24:22.669Z,9.64
2022-10-04T01:28:06.920Z,9.85
2022-10-04T01:31:13.250Z,10.00
2022-10-04T01:34:22.236Z,10.12
2022-10-04T01:37:47.335Z,10.28
2022-10-04T01:41:15.995Z,10.35
2022-10-04T01:44:31.532Z,10.28
2022-10-04T01:48:00.504Z,10.21
2022-10-04T01:51:14.596Z,10.15
2022-10-04T01:54:55.803Z,10.13
2022-10-04T01:58:01.452Z,10.10
2022-10-04T02:01:39.804Z,10.10
2022-10-04T02:04:53.862Z,10.17
2022-10-04T02:07:58.753Z,10.20
2022-10-04T02:11:30.587Z,10.22
2022-10-04T02:14:35.508Z,10.19
2022-10-04T02:17:43.950Z,10.10
2022-10-04T02:21:07.777Z,10.13
2022-10-04T02:24:41.653Z,10.20
2022-10-04T02:27:45.306Z,10.48
2022-10-04T02:31:31.730Z,10.56
2022-10-04T02:34:58.483Z,10.56
2022-10-04T02:38:25.528Z,10.53
2022-10-04T02:41:56.775Z,10.51
2022-10-04T02:45:20.477Z,10.47
2022-10-04T02:48:38.182Z,10.44
2022-10-04T02:52:22.027Z,10.38
2022-10-04T02:55:36.086Z,10.37
2022-10-04T02:59:08.439Z,10.26
2022-10-04T03:02:31.700Z,10.17
2022-10-04T03:05:37.106Z,10.16
2022-10-04T03:09:04.245Z,10.07
2022-10-04T03:12:12.588Z,9.99
2022-10-04T03:15:18.155Z,9.92
2022-10-04T03:18:22.977Z,9.91
2022-10-04T03:21:49.909Z,9.95
2022-10-04T03:25:38.197Z,9.92
2022-10-04T03:29:34.445Z,9.73
2022-10-04T03:32:40.456Z,9.66
2022-10-04T03:36:03.723Z,9.52
2022-10-04T03:39:12.004Z,9.45
2022-10-04T03:42:37.056Z,9.43
2022-10-04T03:45:46.473Z,9.44
2022-10-04T03:49:16.719Z,9.41
2022-10-04T03:52:28.900Z,9.40
2022-10-04T03:55:43.776Z,9.39
2022-10-04T03:59:07.582Z,9.33
2022-10-04T04:02:32.305Z,9.22
2022-10-04T04:06:00.614Z,9.13
2022-10-04T04:09:43.946Z,9.04
2022-10-04T04:13:24.372Z,9.03
2022-10-04T04:16:47.948Z,9.07
2022-10-04T04:20:03.455Z,9.06
2022-10-04T04:23:16.168Z,9.15
2022-10-04T04:26:35.053Z,9.12
2022-10-04T04:30:01.163Z,8.93
2022-10-04T04:33:23.637Z,8.79
2022-10-04T04:36:40.885Z,8.65
2022-10-04T04:39:50.299Z,8.79
2022-10-04T04:43:30.978Z,8.99
2022-10-04T04:47:07.945Z,9.23
2022-10-04T04:50:27.400Z,9.36
2022-10-04T04:53:32.888Z,9.47
2022-10-04T04:56:57.587Z,9.53
2022-10-04T05:00:26.345Z,9.53
2022-10-04T05:03:31.652Z,9.71
2022-10-04T05:06:39.962Z,9.78
2022-10-04T05:09:42.508Z,9.75
2022-10-04T05:12:47.436Z,9.80
2022-10-04T05:16:21.768Z,9.88
2022-10-04T05:20:09.842Z,9.92
2022-10-04T05:23:42.706Z,9.96
2022-10-04T05:27:37.966Z,10.05
2022-10-04T05:31:03.524Z,10.13
2022-10-04T05:34:50.463Z,10.19
2022-10-04T05:38:28.972Z,10.26
2022-10-04T05:42:07.887Z,10.42
2022-10-04T05:45:35.776Z,10.47
2022-10-04T05:48:48.695Z,10.49
2022-10-04T05:52:16.253Z,10.49
2022-10-04T05:55:58.660Z,10.53
2022-10-04T05:59:25.326Z,10.49
2022-10-04T06:03:10.509Z,10.54
2022-10-04T06:06:28.855Z,10.77
2022-10-04T06:09:35.004Z,10.96
2022-10-04T06:12:55.942Z,11.27
2022-10-04T06:16:41.922Z,11.43
2022-10-04T06:20:06.263Z,11.68
2022-10-04T06:23:36.154Z,12.08
2022-10-04T06:26:40.952Z,11.94
2022-10-04T06:29:56.049Z,12.09
2022-10-04T06:33:17.347Z,12.18
2022-10-04T06:36:31.292Z,12.04
2022-10-04T06:40:09.088Z,12.35
2022-10-04T06:43:40.008Z,12.00
2022-10-04T06:46:56.563Z,11.96
2022-10-04T06:50:29.950Z,11.92
2022-10-04T06:54:27.907Z,12.04
2022-10-04T06:58:08.811Z,12.20
2022-10-04T07:01:35.847Z,12.41
2022-10-04T07:05:14.771Z,13.40
2022-10-04T07:08:51.851Z,13.10
2022-10-04T07:12:09.537Z,13.25
2022-10-04T07:15:20.963Z,13.39
2022-10-04T07:19:25.041Z,13.65
2022-10-04T07:23:00.322Z,13.51
2022-10-04T07:26:48.144Z,14.12
2022-10-04T07:30:20.780Z,14.70
2022-10-04T07:34:18.424Z,14.92
2022-10-04T07:41:53.703Z,14.83
2022-10-04T07:45:18.390Z,14.46
2022-10-04T07:52:48.111Z,13.87
2022-10-04T07:56:44.263Z,14.47
2022-10-04T08:00:12.487Z,14.58
2022-10-04T08:03:52.330Z,14.54
2022-10-04T08:07:31.744Z,14.92
2022-10-04T08:11:45.916Z,15.60
2022-10-04T08:15:08.467Z,16.00
2022-10-04T08:18:54.420Z,16.08
2022-10-04T08:22:27.228Z,16.14
2022-10-04T08:25:48.726Z,16.45
2022-10-04T08:29:43.143Z,16.93
2022-10-04T08:33:20.884Z,16.86
2022-10-04T08:36:48.306Z,17.27
2022-10-04T08:40:28.825Z,17.17
2022-10-04T08:44:21.303Z,16.93
2022-10-04T08:48:10.021Z,16.47
2022-10-04T08:51:31.785Z,16.53
2022-10-04T08:55:08.687Z,16.83
2022-10-04T08:58:41.618Z,17.56
2022-10-04T09:02:29.249Z,17.52
2022-10-04T09:05:53.917Z,17.27
2022-10-04T09:09:39.858Z,17.04
2022-10-04T09:13:25.675Z,17.08
2022-10-04T09:16:56.517Z,16.30
2022-10-04T09:20:39.960Z,16.73
2022-10-04T09:24:18.699Z,16.64
2022-10-04T09:27:58.301Z,16.45
2022-10-04T09:31:17.965Z,16.06
2022-10-04T09:35:13.385Z,16.53
2022-10-04T09:39:01.089Z,17.18
2022-10-04T09:42:52.579Z,17.62
2022-10-04T09:46:51.224Z,18.40
2022-10-04T09:50:49.685Z,18.39
2022-10-04T09:55:21.024Z,18.20
2022-10-04T10:03:48.838Z,18.56
2022-10-04T10:07:57.980Z,18.43
2022-10-04T10:12:37.819Z,17.30
2022-10-04T10:16:26.424Z,18.21
2022-10-04T10:20:23.790Z,17.30
2022-10-04T10:24:06.393Z,16.61
2022-10-04T10:28:08.196Z,16.46
2022-10-04T10:32:03.314Z,16.62
2022-10-04T10:44:44.480Z,16.76
2022-10-04T10:48:49.543Z,16.46
2022-10-04T10:57:01.836Z,16.77
2022-10-04T11:00:49.981Z,17.13
2022-10-04T11:04:31.737Z,16.89
2022-10-04T11:08:18.295Z,16.63
2022-10-04T11:11:50.803Z,17.95
2022-10-04T11:14:53.387Z,18.54
2022-10-04T11:18:07.839Z,19.31
2022-10-04T11:21:17.987Z,18.95
2022-10-04T11:24:45.076Z,19.88
2022-10-04T11:28:10.038Z,19.71
2022-10-04T11:31:17.709Z,20.37
2022-10-04T11:34:48.300Z,19.66
2022-10-04T11:37:57.522Z,19.24
2022-10-04T11:41:25.163Z,19.48
2022-10-04T11:44:52.500Z,19.72
2022-10-04T11:48:27.570Z,19.08
2022-10-04T11:51:47.930Z,18.51
2022-10-04T11:55:15.634Z,18.11
2022-10-04T11:58:40.036Z,18.21
2022-10-04T12:02:13.301Z,17.85
2022-10-04T12:05:33.470Z,17.89
2022-10-04T12:08:54.288Z,18.27
2022-10-04T12:12:37.821Z,17.88
2022-10-04T12:15:49.434Z,17.69
2022-10-04T12:19:15.493Z,17.85
2022-10-04T12:22:49.812Z,17.00
2022-10-04T12:26:50.033Z,17.48
2022-10-04T12:30:02.633Z,17.97
2022-10-04T12:33:23.725Z,18.10
2022-10-04T12:36:28.908Z,18.25
2022-10-04T12:40:03.131Z,17.53
2022-10-04T12:43:30.465Z,17.81
2022-10-04T12:46:53.025Z,18.45
2022-10-04T12:50:26.310Z,18.98
2022-10-04T12:53:56.681Z,18.65
2022-10-04T12:57:49.891Z,18.18
2022-10-04T13:05:11.201Z,17.04
2022-10-04T13:08:32.684Z,17.15
2022-10-04T13:11:47.148Z,17.42
2022-10-04T13:15:07.545Z,17.75
2022-10-04T13:18:22.033Z,18.05
2022-10-04T13:21:27.705Z,17.75
2022-10-04T13:24:52.984Z,17.67
2022-10-04T13:28:32.006Z,18.02
2022-10-04T13:31:37.045Z,17.77
2022-10-04T13:34:56.948Z,17.74
2022-10-04T13:38:35.993Z,17.48
2022-10-04T13:41:48.225Z,17.35
2022-10-04T13:45:09.149Z,17.52
2022-10-04T13:48:56.711Z,17.37
2022-10-04T13:52:53.644Z,17.35
2022-10-04T13:56:26.482Z,16.90
2022-10-04T13:59:40.094Z,16.88
2022-10-04T14:02:52.369Z,16.86
2022-10-04T14:06:20.793Z,16.76
2022-10-04T14:09:38.254Z,16.91
2022-10-04T14:13:03.071Z,16.91
2022-10-04T14:16:14.268Z,16.78
2022-10-04T14:19:38.050Z,16.72
2022-10-04T14:22:56.391Z,16.63
2022-10-04T14:26:07.468Z,16.71
2022-10-04T14:29:49.901Z,16.56
2022-10-04T14:32:59.109Z,16.59
2022-10-04T14:36:29.393Z,16.63
2022-10-04T14:39:50.208Z,16.46
2022-10-04T14:43:03.204Z,16.20
2022-10-04T14:46:31.236Z,16.20
2022-10-04T14:50:08.678Z,16.06
2022-10-04T14:53:28.471Z,15.94
2022-10-04T14:56:53.989Z,15.99
2022-10-04T15:00:19.746Z,16.00
2022-10-04T15:03:53.226Z,15.75
2022-10-04T15:07:16.704Z,15.60
2022-10-04T15:10:34.332Z,15.59
2022-10-04T15:14:06.898Z,15.44
2022-10-04T15:17:37.842Z,15.43
2022-10-04T15:21:28.914Z,15.09
2022-10-04T15:24:51.375Z,14.98
2022-10-04T15:27:58.557Z,14.94
2022-10-04T15:31:16.539Z,14.82
2022-10-04T15:34:47.042Z,14.87
2022-10-04T15:37:59.848Z,14.69
2022-10-04T15:41:28.901Z,14.69
2022-10-04T15:44:41.012Z,14.61
2022-10-04T15:48:11.258Z,14.48
2022-10-04T15:51:44.738Z,14.37
2022-10-04T15:55:13.043Z,14.37
2022-10-04T15:58:28.598Z,14.16
2022-10-04T16:02:31.604Z,14.05
2022-10-04T16:06:04.792Z,13.89
2022-10-04T16:09:41.800Z,13.75
2022-10-04T16:12:51.088Z,13.67
2022-10-04T16:16:33.216Z,13.56
2022-10-04T16:20:02.102Z,13.44
2022-10-04T16:23:29.869Z,13.38
2022-10-04T16:26:35.706Z,13.20
2022-10-04T16:30:25.539Z,13.03
2022-10-04T16:34:08.080Z,12.86
2022-10-04T16:37:10.457Z,12.68
2022-10-04T16:40:13.472Z,12.49
2022-10-04T16:43:17.686Z,12.46
2022-10-04T16:46:30.148Z,12.47
2022-10-04T16:49:54.269Z,12.33
2022-10-04T16:53:23.316Z,12.26
2022-10-04T16:56:28.991Z,12.12
2022-10-04T16:59:44.284Z,12.00
2022-10-04T17:03:32.883Z,11.87
2022-10-04T17:07:12.361Z,11.81
2022-10-04T17:11:28.320Z,11.76
2022-10-04T17:15:49.765Z,11.76
2022-10-04T17:19:52.556Z,11.71
2022-10-04T17:23:50.663Z,11.64
2022-10-04T17:27:46.780Z,11.66
2022-10-04T17:31:18.599Z,11.59
2022-10-04T17:35:10.228Z,11.52
2022-10-04T17:39:08.383Z,11.37
2022-10-04T17:42:49.090Z,11.19
2022-10-04T17:45:57.993Z,11.02
2022-10-04T17:50:01.424Z,10.88
2022-10-04T17:53:34.393Z,10.75
2022-10-04T17:57:25.520Z,10.67
2022-10-04T18:00:53.453Z,10.51
2022-10-04T18:04:09.245Z,10.40
2022-10-04T18:07:29.824Z,10.29
2022-10-04T18:20:30.027Z,10.00
2022-10-04T18:31:35.416Z,9.63
2022-10-04T18:35:26.333Z,9.54
2022-10-04T18:46:43.713Z,9.25
2022-10-04T18:50:27.787Z,9.16
2022-10-04T19:04:57.116Z,8.96
2022-10-04T19:28:08.514Z,8.54
2022-10-04T19:32:04.360Z,8.45
2022-10-04T19:44:50.030Z,8.20
2022-10-04T19:49:01.927Z,8.18
2022-10-04T20:01:13.963Z,7.98
2022-10-04T20:05:12.546Z,7.97
2022-10-04T20:13:27.006Z,7.86
2022-10-04T20:17:48.961Z,7.78
2022-10-04T20:22:00.018Z,7.70
2022-10-04T20:25:51.839Z,7.70
2022-10-04T20:29:46.622Z,7.61
2022-10-04T20:33:39.958Z,7.60
2022-10-04T20:37:49.497Z,7.52
2022-10-04T20:42:15.741Z,7.46
2022-10-04T20:45:45.541Z,7.42
2022-10-04T20:49:28.590Z,7.35
2022-10-04T20:53:35.572Z,7.29
2022-10-04T20:57:24.836Z,7.20
2022-10-04T21:00:56.877Z,7.13
2022-10-04T21:04:33.103Z,7.12
2022-10-04T21:08:33.630Z,7.06
2022-10-04T21:12:41.313Z,7.08
2022-10-04T21:15:57.170Z,7.00
2022-10-04T21:19:36.640Z,6.91
2022-10-04T21:22:42.095Z,6.89
2022-10-04T21:25:51.781Z,6.90
2022-10-04T21:29:14.151Z,6.86
2022-10-04T21:32:27.958Z,6.81
2022-10-04T21:35:42.360Z,6.80
2022-10-04T21:38:47.710Z,6.78
2022-10-04T21:41:58.873Z,6.78
2022-10-04T21:45:22.231Z,6.81
2022-10-04T21:48:45.436Z,6.78
2022-10-04T21:52:21.348Z,6.70
2022-10-04T21:56:07.659Z,6.65
2022-10-04T21:59:53.766Z,6.60
2022-10-04T22:03:19.979Z,6.54
2022-10-04T22:06:47.535Z,6.54
2022-10-04T22:10:40.023Z,6.54
2022-10-04T22:14:29.868Z,6.50
2022-10-04T22:17:58.680Z,6.53
2022-10-04T22:21:07.394Z,6.47
2022-10-04T22:24:16.644Z,6.40
2022-10-04T22:28:19.578Z,6.33
2022-10-04T22:32:02.090Z,6.29
2022-10-04T22:35:32.235Z,6.31
2022-10-04T22:39:30.502Z,6.25
2022-10-04T22:42:56.371Z,6.17
2022-10-04T22:46:22.407Z,6.15
2022-10-04T22:50:35.125Z,6.16
2022-10-04T22:53:47.054Z,6.12
2022-10-04T22:57:10.643Z,6.08
2022-10-04T23:00:25.136Z,6.02
2022-10-04T23:03:50.153Z,5.99
2022-10-04T23:07:21.213Z,5.94
2022-10-04T23:10:34.756Z,5.92
2022-10-04T23:13:58.996Z,5.86
2022-10-04T23:17:42.901Z,5.85
2022-10-04T23:21:32.300Z,5.77
2022-10-04T23:25:00.435Z,5.81
2022-10-04T23:28:27.266Z,5.80
2022-10-04T23:31:58.547Z,5.74
2022-10-04T23:35:38.174Z,5.85
2022-10-04T23:39:28.457Z,5.79
2022-10-04T23:42:56.416Z,5.80
2022-10-04T23:46:46.279Z,5.73
2022-10-04T23:50:35.222Z,5.63
2022-10-04T23:54:38.504Z,5.61
2022-10-04T23:58:41.910Z,5.60
